createdAt,value
2023-01-05T00:11:54.319Z,5.36
2023-01-05T02:29:52.730Z,5.99
2023-01-05T02:32:52.737Z,6.01
2023-01-05T02:36:28.696Z,6.02
2023-01-05T02:49:29.553Z,6.33
2023-01-05T02:58:38.072Z,6.50
2023-01-05T03:01:30.336Z,6.49
2023-01-05T03:04:41.178Z,6.52
2023-01-05T03:30:06.593Z,6.70
2023-01-05T04:17:45.786Z,6.97
2023-01-05T04:24:13.726Z,7.02
2023-01-05T04:26:53.197Z,7.04
2023-01-05T04:29:35.575Z,7.04
2023-01-05T04:32:22.600Z,7.05
2023-01-05T04:35:10.852Z,7.06
2023-01-05T04:37:53.746Z,7.09
2023-01-05T04:40:34.631Z,7.10
2023-01-05T04:43:24.183Z,7.12
2023-01-05T04:46:18.139Z,7.14
2023-01-05T04:48:51.423Z,7.15
2023-01-05T04:54:51.249Z,7.19
2023-01-05T04:57:26.115Z,7.23
2023-01-05T05:00:37.963Z,7.26
2023-01-05T05:03:15.260Z,7.28
2023-01-05T05:08:51.561Z,7.33
2023-01-05T05:11:29.779Z,7.36
2023-01-05T05:16:48.019Z,7.45
2023-01-05T05:22:04.802Z,7.51
2023-01-05T05:30:34.068Z,7.67
2023-01-05T05:33:06.472Z,7.73
2023-01-05T05:35:48.481Z,7.76
2023-01-05T05:38:38.805Z,7.83
2023-01-05T05:41:10.710Z,7.90
2023-01-05T05:43:53.643Z,7.91
2023-01-05T05:46:49.745Z,7.95
2023-01-05T05:55:43.715Z,8.08
2023-01-05T05:58:14.595Z,8.10
2023-01-05T06:00:50.009Z,8.11
2023-01-05T06:03:21.616Z,8.13
2023-01-05T06:05:58.095Z,8.15
2023-01-05T06:08:33.037Z,8.16
2023-01-05T06:11:03.888Z,8.18
2023-01-05T06:13:31.180Z,8.19
2023-01-05T06:16:00.529Z,8.21
2023-01-05T06:18:29.018Z,8.21
2023-01-05T06:21:02.131Z,8.23
2023-01-05T06:23:30.648Z,8.22
2023-01-05T06:25:58.277Z,8.25
2023-01-05T06:28:27.001Z,8.28
2023-01-05T06:30:56.371Z,8.31
2023-01-05T06:33:24.121Z,8.32
2023-01-05T06:35:51.326Z,8.33
2023-01-05T06:38:22.952Z,8.37
2023-01-05T06:40:50.761Z,8.39
2023-01-05T06:43:17.738Z,8.40
2023-01-05T06:45:49.727Z,8.42
2023-01-05T06:48:19.659Z,8.45
2023-01-05T06:50:55.342Z,8.45
2023-01-05T06:53:30.670Z,8.47
2023-01-05T06:56:01.977Z,8.49
2023-01-05T06:58:30.283Z,8.50
2023-01-05T07:00:57.620Z,8.49
2023-01-05T07:03:24.725Z,8.49
2023-01-05T07:05:52.176Z,8.50
2023-01-05T07:08:23.329Z,8.49
2023-01-05T07:11:05.042Z,8.52
2023-01-05T07:13:54.310Z,8.51
2023-01-05T07:20:00.613Z,8.55
2023-01-05T07:25:09.667Z,8.54
2023-01-05T07:27:59.240Z,8.53
2023-01-05T07:30:30.093Z,8.55
2023-01-05T07:33:00.627Z,8.56
2023-01-05T07:38:59.560Z,8.57
2023-01-05T07:41:37.607Z,8.55
2023-01-05T07:44:08.749Z,8.56
2023-01-05T07:46:49.364Z,8.56
2023-01-05T07:49:17.329Z,8.55
2023-01-05T07:52:04.258Z,8.55
2023-01-05T07:57:29.158Z,8.56
2023-01-05T07:59:59.067Z,8.56
2023-01-05T08:02:35.688Z,8.56
2023-01-05T08:05:25.514Z,8.57
2023-01-05T08:08:03.990Z,8.57
2023-01-05T08:10:33.830Z,8.56
2023-01-05T08:13:23.415Z,8.57
2023-01-05T08:16:03.570Z,8.58
2023-01-05T08:21:53.756Z,8.58
2023-01-05T08:24:38.133Z,8.59
2023-01-05T08:30:07.606Z,8.64
2023-01-05T08:32:35.912Z,8.64
2023-01-05T08:35:11.172Z,8.66
2023-01-05T08:37:48.472Z,8.68
2023-01-05T08:40:32.022Z,8.70
2023-01-05T08:43:11.227Z,8.69
2023-01-05T08:45:47.441Z,8.72
2023-01-05T08:55:00.780Z,8.76
2023-01-05T08:57:29.216Z,8.77
2023-01-05T09:00:00.789Z,8.79
2023-01-05T09:02:29.971Z,8.80
2023-01-05T09:04:57.261Z,8.81
2023-01-05T09:07:24.683Z,8.84
2023-01-05T09:09:51.679Z,8.85
2023-01-05T09:12:18.962Z,8.86
2023-01-05T09:14:47.791Z,8.88
2023-01-05T09:17:14.912Z,8.89
2023-01-05T09:19:45.107Z,8.90
2023-01-05T09:22:12.140Z,8.91
2023-01-05T09:24:39.612Z,8.92
2023-01-05T09:27:09.317Z,8.94
2023-01-05T09:29:36.332Z,8.95
2023-01-05T09:32:05.136Z,8.96
2023-01-05T09:34:32.254Z,8.98
2023-01-05T09:37:00.879Z,8.99
2023-01-05T09:39:27.993Z,8.99
2023-01-05T09:41:55.693Z,9.02
2023-01-05T09:44:27.867Z,9.02
2023-01-05T09:46:55.280Z,9.03
2023-01-05T09:49:24.502Z,9.04
2023-01-05T09:51:52.300Z,9.05
2023-01-05T09:54:19.418Z,9.05
2023-01-05T09:59:34.413Z,9.06
2023-01-05T10:02:02.663Z,9.06
2023-01-05T10:04:33.147Z,9.07
2023-01-05T10:07:03.969Z,9.08
2023-01-05T10:09:31.920Z,9.07
2023-01-05T10:12:18.512Z,9.09
2023-01-05T10:14:51.723Z,9.08
2023-01-05T10:17:40.964Z,9.09
2023-01-05T10:20:24.934Z,9.08
2023-01-05T10:23:06.761Z,9.08
2023-01-05T10:25:59.907Z,9.09
2023-01-05T10:28:45.604Z,9.08
2023-01-05T10:31:12.498Z,9.08
2023-01-05T10:33:52.156Z,9.09
2023-01-05T10:39:34.423Z,9.09
2023-01-05T10:42:27.673Z,9.08
2023-01-05T10:44:54.608Z,9.09
2023-01-05T10:47:22.042Z,9.07
2023-01-05T10:49:48.961Z,9.09
2023-01-05T10:52:16.479Z,9.11
2023-01-05T10:54:44.349Z,9.10
2023-01-05T10:57:35.958Z,9.11
2023-01-05T11:00:14.571Z,9.10
2023-01-05T11:02:51.502Z,9.11
2023-01-05T11:05:31.914Z,9.11
2023-01-05T11:08:02.344Z,9.12
2023-01-05T11:10:30.216Z,9.14
2023-01-05T11:13:04.381Z,9.13
2023-01-05T11:15:31.805Z,9.15
2023-01-05T11:17:58.644Z,9.15
2023-01-05T11:20:28.488Z,9.17
2023-01-05T11:22:55.580Z,9.18
2023-01-05T11:25:28.799Z,9.18
2023-01-05T11:28:05.607Z,9.19
2023-01-05T11:30:33.673Z,9.18
2023-01-05T11:33:01.890Z,9.18
2023-01-05T11:35:32.697Z,9.20
2023-01-05T11:38:00.656Z,9.20
2023-01-05T11:40:34.422Z,9.21
2023-01-05T11:43:01.558Z,9.22
2023-01-05T11:45:36.512Z,9.23
2023-01-05T11:48:04.267Z,9.25
2023-01-05T11:50:31.622Z,9.25
2023-01-05T11:53:00.846Z,9.26
2023-01-05T11:55:30.402Z,9.28
2023-01-05T11:58:17.897Z,9.28
2023-01-05T12:00:58.025Z,9.31
2023-01-05T12:03:43.806Z,9.31
2023-01-05T12:06:30.115Z,9.32
2023-01-05T12:08:56.974Z,9.33
2023-01-05T12:11:23.940Z,9.34
2023-01-05T12:14:09.545Z,9.37
2023-01-05T12:16:46.752Z,9.40
2023-01-05T12:19:28.622Z,9.41
2023-01-05T12:22:02.439Z,9.43
2023-01-05T12:24:38.865Z,9.44
2023-01-05T12:27:15.916Z,9.44
2023-01-05T12:34:00.451Z,9.48
2023-01-05T12:35:39.254Z,9.49
2023-01-05T12:38:21.457Z,9.49
2023-01-05T12:40:48.415Z,9.51
2023-01-05T12:43:18.088Z,9.51
2023-01-05T12:45:51.106Z,9.53
2023-01-05T12:48:19.313Z,9.53
2023-01-05T12:51:04.681Z,9.53
2023-01-05T12:53:40.715Z,9.55
2023-01-05T12:56:21.677Z,9.55
2023-01-05T12:58:54.172Z,9.56
2023-01-05T13:01:25.923Z,9.55
2023-01-05T13:03:54.841Z,9.58
2023-01-05T13:06:24.804Z,9.57
2023-01-05T13:08:56.371Z,9.59
2023-01-05T13:11:34.930Z,9.58
2023-01-05T13:14:05.953Z,9.60
2023-01-05T13:16:32.790Z,9.60
2023-01-05T13:19:04.903Z,9.60
2023-01-05T13:21:31.850Z,9.62
2023-01-05T13:24:00.187Z,9.62
2023-01-05T13:26:27.040Z,9.63
2023-01-05T13:28:54.155Z,9.62
2023-01-05T13:31:33.415Z,9.63
2023-01-05T13:34:03.181Z,9.63
2023-01-05T13:36:48.930Z,9.64
2023-01-05T13:39:35.491Z,9.67
2023-01-05T13:42:02.274Z,9.67
2023-01-05T13:44:31.766Z,9.68
2023-01-05T13:47:10.967Z,9.70
2023-01-05T13:49:57.632Z,9.71
2023-01-05T13:52:32.093Z,9.71
2023-01-05T13:55:02.510Z,9.75
2023-01-05T13:57:37.701Z,9.76
2023-01-05T14:00:11.013Z,9.79
2023-01-05T14:02:43.161Z,9.80
2023-01-05T14:05:16.272Z,9.83
2023-01-05T14:07:43.127Z,9.84
2023-01-05T14:10:29.163Z,9.84
2023-01-05T14:12:56.055Z,9.88
2023-01-05T14:15:37.782Z,9.90
2023-01-05T14:18:08.489Z,9.89
2023-01-05T14:20:35.378Z,9.91
2023-01-05T14:23:03.089Z,9.90
2023-01-05T14:25:39.438Z,9.91
2023-01-05T14:28:24.824Z,9.89
2023-01-05T14:30:52.012Z,9.90
2023-01-05T14:33:19.369Z,9.90
2023-01-05T14:35:46.255Z,9.90
2023-01-05T14:38:23.258Z,9.88
2023-01-05T14:40:55.954Z,9.86
2023-01-05T14:43:25.325Z,9.85
2023-01-05T14:46:04.571Z,9.84
2023-01-05T14:48:40.602Z,9.83
2023-01-05T14:51:10.455Z,9.82
2023-01-05T14:53:38.237Z,9.81
2023-01-05T14:56:05.133Z,9.79
2023-01-05T14:58:38.108Z,9.79
2023-01-05T15:01:17.523Z,9.78
2023-01-05T15:04:03.259Z,9.77
2023-01-05T15:06:48.980Z,9.77
2023-01-05T15:09:35.003Z,9.80
2023-01-05T15:12:09.509Z,9.85
2023-01-05T15:14:55.073Z,9.84
2023-01-05T15:17:27.802Z,9.80
2023-01-05T15:19:57.674Z,9.79
2023-01-05T15:22:37.708Z,9.77
2023-01-05T15:25:08.543Z,9.75
2023-01-05T15:27:41.569Z,9.73
2023-01-05T15:30:18.336Z,9.72
2023-01-05T15:32:45.467Z,9.70
2023-01-05T15:35:14.857Z,9.70
2023-01-05T15:37:42.028Z,9.68
2023-01-05T15:40:14.972Z,9.67
2023-01-05T15:42:45.408Z,9.66
2023-01-05T15:45:18.562Z,9.64
2023-01-05T15:47:45.354Z,9.61
2023-01-05T15:50:30.077Z,9.58
2023-01-05T15:52:58.237Z,9.54
2023-01-05T15:55:25.068Z,9.53
2023-01-05T15:57:59.111Z,9.51
2023-01-05T16:00:30.752Z,9.51
2023-01-05T16:02:59.791Z,9.50
2023-01-05T16:05:27.379Z,9.47
2023-01-05T16:07:58.434Z,9.46
2023-01-05T16:10:39.658Z,9.44
2023-01-05T16:13:10.655Z,9.44
2023-01-05T16:15:37.719Z,9.43
2023-01-05T16:18:05.836Z,9.41
2023-01-05T16:20:32.740Z,9.40
2023-01-05T16:23:08.389Z,9.38
2023-01-05T16:25:54.890Z,9.38
2023-01-05T16:28:22.351Z,9.37
2023-01-05T16:30:49.409Z,9.36
2023-01-05T16:33:36.067Z,9.36
2023-01-05T16:36:07.224Z,9.36
2023-01-05T16:38:34.344Z,9.36
2023-01-05T16:41:04.216Z,9.37
2023-01-05T16:43:40.255Z,9.35
2023-01-05T16:46:10.279Z,9.36
2023-01-05T16:48:39.040Z,9.36
2023-01-05T16:51:07.429Z,9.36
2023-01-05T16:53:40.325Z,9.36
2023-01-05T16:56:18.337Z,9.37
2023-01-05T16:58:45.301Z,9.37
2023-01-05T17:01:15.912Z,9.37
2023-01-05T17:03:43.020Z,9.37
2023-01-05T17:06:29.206Z,9.38
2023-01-05T17:08:56.807Z,9.37
2023-01-05T17:11:23.623Z,9.37
2023-01-05T17:13:52.602Z,9.37
2023-01-05T17:16:19.931Z,9.37
2023-01-05T17:18:47.190Z,9.36
2023-01-05T17:21:18.007Z,9.36
2023-01-05T17:23:49.023Z,9.35
2023-01-05T17:26:26.614Z,9.35
2023-01-05T17:28:56.209Z,9.35
2023-01-05T17:31:22.991Z,9.35
2023-01-05T17:33:49.851Z,9.35
2023-01-05T17:36:18.362Z,9.34
2023-01-05T17:38:46.664Z,9.34
2023-01-05T17:41:16.025Z,9.34
2023-01-05T17:43:44.985Z,9.36
2023-01-05T17:46:22.509Z,9.36
2023-01-05T17:48:49.400Z,9.37
2023-01-05T17:51:16.242Z,9.37
2023-01-05T17:53:44.363Z,9.37
2023-01-05T17:56:13.574Z,9.37
2023-01-05T17:58:40.712Z,9.38
2023-01-05T18:01:07.593Z,9.38
2023-01-05T18:03:34.539Z,9.38
2023-01-05T18:06:01.397Z,9.38
2023-01-05T18:08:28.289Z,9.39
2023-01-05T18:10:55.084Z,9.37
2023-01-05T18:13:22.863Z,9.36
2023-01-05T18:15:50.781Z,9.37
2023-01-05T18:18:18.301Z,9.37
2023-01-05T18:20:45.143Z,9.36
2023-01-05T18:23:12.086Z,9.37
2023-01-05T18:25:39.117Z,9.37
2023-01-05T18:28:06.184Z,9.36
2023-01-05T18:30:33.297Z,9.35
2023-01-05T18:33:00.119Z,9.35
2023-01-05T18:35:27.056Z,9.34
2023-01-05T18:37:58.173Z,9.34
2023-01-05T18:40:25.093Z,9.33
2023-01-05T18:42:52.212Z,9.34
2023-01-05T18:45:31.776Z,9.34
2023-01-05T18:47:59.173Z,9.33
2023-01-05T18:50:28.357Z,9.32
2023-01-05T18:52:55.305Z,9.31
2023-01-05T18:55:22.165Z,9.30
2023-01-05T18:57:49.110Z,9.29
2023-01-05T19:00:16.049Z,9.28
2023-01-05T19:02:42.892Z,9.26
2023-01-05T19:05:10.258Z,9.25
2023-01-05T19:07:39.008Z,9.25
2023-01-05T19:10:06.326Z,9.25
2023-01-05T19:12:33.289Z,9.24
2023-01-05T19:15:00.211Z,9.23
2023-01-05T19:17:27.076Z,9.23
2023-01-05T19:19:55.251Z,9.21
2023-01-05T19:22:22.044Z,9.21
2023-01-05T19:24:48.820Z,9.22
2023-01-05T19:27:15.715Z,9.20
2023-01-05T19:29:42.517Z,9.18
2023-01-05T19:32:09.339Z,9.17
2023-01-05T19:34:36.388Z,9.17
2023-01-05T19:37:05.719Z,9.15
2023-01-05T19:39:32.594Z,9.14
2023-01-05T19:41:59.550Z,9.14
2023-01-05T19:44:26.510Z,9.12
2023-01-05T19:46:54.333Z,9.11
2023-01-05T19:49:22.212Z,9.11
2023-01-05T19:51:49.872Z,9.10
2023-01-05T19:54:16.818Z,9.10
2023-01-05T19:56:46.005Z,9.08
2023-01-05T19:59:16.739Z,9.07
2023-01-05T20:01:43.722Z,9.05
2023-01-05T20:04:10.646Z,9.04
2023-01-05T20:06:38.187Z,9.03
2023-01-05T20:09:07.505Z,9.03
2023-01-05T20:11:41.086Z,9.01
2023-01-05T20:14:15.036Z,9.01
2023-01-05T20:16:42.569Z,8.99
2023-01-05T20:19:10.728Z,8.97
2023-01-05T20:21:37.571Z,8.96
2023-01-05T20:24:07.297Z,8.96
2023-01-05T20:26:34.308Z,8.96
2023-01-05T20:29:01.500Z,8.95
2023-01-05T20:31:29.856Z,8.94
2023-01-05T20:33:57.342Z,8.94
2023-01-05T20:36:24.520Z,8.94
2023-01-05T20:38:54.061Z,8.92
2023-01-05T20:41:20.988Z,8.91
2023-01-05T20:43:48.150Z,8.90
2023-01-05T20:46:15.881Z,8.89
2023-01-05T20:48:42.982Z,8.90
2023-01-05T20:51:10.702Z,8.87
2023-01-05T20:53:43.224Z,8.86
2023-01-05T20:56:12.850Z,8.87
2023-01-05T20:58:40.648Z,8.86
2023-01-05T21:01:11.686Z,8.86
2023-01-05T21:03:38.923Z,8.85
2023-01-05T21:06:06.227Z,8.84
2023-01-05T21:08:35.699Z,8.83
2023-01-05T21:11:03.183Z,8.81
2023-01-05T21:13:32.160Z,8.81
2023-01-05T21:16:00.812Z,8.80
2023-01-05T21:18:28.019Z,8.79
2023-01-05T21:20:55.285Z,8.78
2023-01-05T21:23:22.436Z,8.77
2023-01-05T21:26:06.248Z,8.76
2023-01-05T21:28:39.619Z,8.75
2023-01-05T21:31:08.472Z,8.76
2023-01-05T21:33:36.460Z,8.76
2023-01-05T21:36:04.055Z,8.75
2023-01-05T21:39:00.812Z,8.75
2023-01-05T21:41:38.770Z,8.73
2023-01-05T21:44:08.169Z,8.71
2023-01-05T21:46:35.104Z,8.70
2023-01-05T21:49:01.982Z,8.67
2023-01-05T21:51:47.583Z,8.66
2023-01-05T21:54:34.423Z,8.64
2023-01-05T21:57:01.419Z,8.63
2023-01-05T21:59:28.396Z,8.63
2023-01-05T22:01:55.548Z,8.62
2023-01-05T22:04:25.568Z,8.62
2023-01-05T22:06:52.672Z,8.62
2023-01-05T22:09:19.557Z,8.61
2023-01-05T22:11:46.432Z,8.62
2023-01-05T22:14:13.261Z,8.60
2023-01-05T22:16:40.351Z,8.61
2023-01-05T22:19:07.324Z,8.60
2023-01-05T22:21:34.220Z,8.59
2023-01-05T22:24:02.430Z,8.59
2023-01-05T22:26:29.321Z,8.59
2023-01-05T22:28:56.201Z,8.58
2023-01-05T22:31:27.242Z,8.56
2023-01-05T22:33:55.088Z,8.56
2023-01-05T22:36:22.332Z,8.54
2023-01-05T22:38:49.646Z,8.53
2023-01-05T22:41:19.294Z,8.53
2023-01-05T22:43:48.826Z,8.54
2023-01-05T22:46:16.946Z,8.52
2023-01-05T22:48:44.179Z,8.52
2023-01-05T22:51:13.633Z,8.51
2023-01-05T22:53:40.612Z,8.50
2023-01-05T22:56:08.386Z,8.50
2023-01-05T22:58:35.379Z,8.49
2023-01-05T23:01:08.868Z,8.48
2023-01-05T23:03:35.816Z,8.48
2023-01-05T23:06:02.704Z,8.45
2023-01-05T23:08:29.836Z,8.44
2023-01-05T23:11:00.640Z,8.43
2023-01-05T23:13:27.716Z,8.41
2023-01-05T23:15:55.063Z,8.39
2023-01-05T23:18:22.179Z,8.40
2023-01-05T23:20:55.679Z,8.39
2023-01-05T23:23:23.180Z,8.39
2023-01-05T23:25:55.266Z,8.39
2023-01-05T23:28:22.563Z,8.37
2023-01-05T23:30:50.388Z,8.36
2023-01-05T23:33:17.886Z,8.34
2023-01-05T23:35:44.796Z,8.34
2023-01-05T23:38:11.757Z,8.33
2023-01-05T23:40:42.617Z,8.32
2023-01-05T23:43:13.158Z,8.31
2023-01-05T23:45:42.774Z,8.30
2023-01-05T23:48:09.828Z,8.30
2023-01-05T23:50:36.837Z,8.29
2023-01-05T23:53:04.100Z,8.26
2023-01-05T23:55:31.032Z,8.25
2023-01-05T23:57:58.255Z,8.23
